createdAt,value
2018-03-16T00:01:28.584Z,4.33
2018-03-16T00:04:32.731Z,4.30
2018-03-16T00:07:36.019Z,3.97
2018-03-16T00:10:39.315Z,4.10
2018-03-16T00:13:42.703Z,4.33
2018-03-16T00:16:46.006Z,4.50
2018-03-16T00:19:50.131Z,4.30
2018-03-16T00:22:53.424Z,4.10
2018-03-16T00:25:56.753Z,4.20
2018-03-16T00:29:00.055Z,4.40
2018-03-16T00:32:03.340Z,4.60
2018-03-16T00:35:06.649Z,4.50
2018-03-16T00:38:10.015Z,4.23
2018-03-16T00:41:13.323Z,3.87
2018-03-16T00:44:16.628Z,4.07
2018-03-16T00:47:19.935Z,4.20
2018-03-16T00:50:23.246Z,4.60
2018-03-16T00:53:26.531Z,4.00
2018-03-16T00:56:29.838Z,4.40
2018-03-16T00:59:33.132Z,4.97
2018-03-16T01:02:36.423Z,4.43
2018-03-16T01:05:39.940Z,4.43
2018-03-16T01:08:43.249Z,4.50
2018-03-16T01:11:46.555Z,4.83
2018-03-16T01:14:49.867Z,4.50
2018-03-16T01:17:53.162Z,4.57
2018-03-16T01:20:56.468Z,4.93
2018-03-16T01:23:59.759Z,5.27
2018-03-16T01:27:03.058Z,4.33
2018-03-16T01:30:07.180Z,5.47
2018-03-16T01:33:11.236Z,4.33
2018-03-16T01:36:14.538Z,4.65
2018-03-16T01:39:17.843Z,4.40
2018-03-16T01:42:21.131Z,4.60
2018-03-16T01:45:24.507Z,3.40
2018-03-16T01:48:27.803Z,3.83
2018-03-16T01:51:31.867Z,3.83
2018-03-16T01:54:35.424Z,4.10
2018-03-16T01:57:38.714Z,3.10
2018-03-16T02:00:42.780Z,3.23
2018-03-16T02:03:46.088Z,3.73
2018-03-16T02:06:49.381Z,2.87
2018-03-16T02:09:52.689Z,3.72
2018-03-16T02:12:55.977Z,2.20
2018-03-16T02:15:59.282Z,2.43
2018-03-16T02:19:02.579Z,2.47
2018-03-16T02:22:05.877Z,2.53
2018-03-16T02:25:09.178Z,2.33
2018-03-16T02:28:12.493Z,3.17
2018-03-16T02:31:15.809Z,3.20
2018-03-16T02:34:19.879Z,2.37
2018-03-16T02:37:23.184Z,2.73
2018-03-16T02:40:26.475Z,2.23
2018-03-16T02:43:29.769Z,2.90
2018-03-16T02:46:33.082Z,2.90
2018-03-16T02:49:36.388Z,2.80
2018-03-16T02:52:40.457Z,2.77
2018-03-16T02:55:43.779Z,3.07
2018-03-16T02:58:47.085Z,3.17
2018-03-16T03:01:50.392Z,2.80
2018-03-16T03:04:53.694Z,2.90
2018-03-16T03:07:56.993Z,2.90
2018-03-16T03:11:00.298Z,3.93
2018-03-16T03:14:03.605Z,3.37
2018-03-16T03:17:07.669Z,3.40
2018-03-16T03:20:11.013Z,3.83
2018-03-16T03:23:15.088Z,3.70
2018-03-16T03:26:18.389Z,3.27
2018-03-16T03:29:21.690Z,2.97
2018-03-16T03:32:24.986Z,3.63
2018-03-16T03:35:28.295Z,4.00
2018-03-16T03:38:33.283Z,3.50
2018-03-16T03:41:36.605Z,2.80
2018-03-16T03:44:39.924Z,2.90
2018-03-16T03:47:43.239Z,3.10
2018-03-16T03:50:46.552Z,2.97
2018-03-16T03:53:50.691Z,2.63
2018-03-16T03:56:53.992Z,2.47
2018-03-16T03:59:57.291Z,2.80
2018-03-16T04:03:01.355Z,2.80
2018-03-16T04:06:04.675Z,3.07
2018-03-16T04:09:08.851Z,2.73
2018-03-16T04:12:12.148Z,1.80
2018-03-16T04:15:15.458Z,2.80
2018-03-16T04:18:18.755Z,2.30
2018-03-16T04:21:22.059Z,1.85
2018-03-16T04:24:25.372Z,1.80
2018-03-16T04:27:28.689Z,2.10
2018-03-16T04:30:32.946Z,1.80
2018-03-16T04:33:36.257Z,1.50
2018-03-16T04:36:39.556Z,1.83
2018-03-16T04:39:42.849Z,1.77
2018-03-16T04:42:46.163Z,1.77
2018-03-16T04:45:49.479Z,1.60
2018-03-16T04:48:52.772Z,1.37
2018-03-16T04:51:56.119Z,1.57
2018-03-16T04:54:59.417Z,1.50
2018-03-16T04:58:02.713Z,1.30
2018-03-16T05:01:06.789Z,1.60
2018-03-16T05:04:10.120Z,1.53
2018-03-16T05:07:14.228Z,1.37
2018-03-16T05:10:17.885Z,1.23
2018-03-16T05:13:21.255Z,1.47
2018-03-16T05:16:30.394Z,1.40
2018-03-16T05:19:34.063Z,1.67
2018-03-16T05:23:03.625Z,1.13
2018-03-16T05:26:09.078Z,1.37
2018-03-16T05:29:12.895Z,1.23
2018-03-16T05:32:16.306Z,1.47
2018-03-16T05:35:19.948Z,1.00
2018-03-16T05:38:24.396Z,1.13
2018-03-16T05:41:29.144Z,1.27
2018-03-16T05:44:33.600Z,1.13
2018-03-16T05:47:36.939Z,0.80
2018-03-16T05:50:42.152Z,1.23
2018-03-16T05:53:45.459Z,0.90
2018-03-16T05:56:48.804Z,0.80
2018-03-16T05:59:52.428Z,0.70
2018-03-16T06:02:55.870Z,0.80
2018-03-16T06:05:59.266Z,0.90
2018-03-16T06:09:13.397Z,0.80
2018-03-16T06:12:18.267Z,0.70
2018-03-16T06:15:21.624Z,0.60
2018-03-16T06:18:24.985Z,0.87
2018-03-16T06:21:29.118Z,0.90
2018-03-16T06:24:33.196Z,0.90
2018-03-16T06:27:36.523Z,1.10
2018-03-16T06:30:40.887Z,1.60
2018-03-16T06:33:45.875Z,1.33
2018-03-16T06:36:49.203Z,1.23
2018-03-16T06:39:52.539Z,1.43
2018-03-16T06:42:55.876Z,1.23
2018-03-16T06:45:59.965Z,0.98
2018-03-16T06:49:03.349Z,1.10
2018-03-16T06:52:06.670Z,1.00
2018-03-16T06:55:10.186Z,0.93
2018-03-16T06:58:13.499Z,1.23
2018-03-16T07:01:17.677Z,1.00
2018-03-16T07:04:20.978Z,1.70
2018-03-16T07:07:24.306Z,1.73
2018-03-16T07:10:28.398Z,1.30
2018-03-16T07:13:31.716Z,2.13
2018-03-16T07:16:35.808Z,2.30
2018-03-16T07:19:39.102Z,1.90
2018-03-16T07:22:42.412Z,1.83
2018-03-16T07:25:45.715Z,1.67
2018-03-16T07:28:49.034Z,1.70
2018-03-16T07:31:53.407Z,1.57
2018-03-16T07:34:56.719Z,1.87
2018-03-16T07:38:00.043Z,1.70
2018-03-16T07:41:03.342Z,1.37
2018-03-16T07:44:06.647Z,1.40
2018-03-16T07:47:10.714Z,1.20
2018-03-16T07:50:14.011Z,1.50
2018-03-16T07:53:17.420Z,1.33
2018-03-16T07:56:20.723Z,1.13
2018-03-16T07:59:24.032Z,1.43
2018-03-16T08:02:27.340Z,1.30
2018-03-16T08:05:30.646Z,1.12
2018-03-16T08:08:34.720Z,1.40
2018-03-16T08:11:38.054Z,1.43
2018-03-16T08:14:41.357Z,1.20
2018-03-16T08:17:45.436Z,0.90
2018-03-16T08:20:48.727Z,1.13
2018-03-16T08:23:52.032Z,1.03
2018-03-16T08:26:55.696Z,0.70
2018-03-16T08:29:59.103Z,0.90
2018-03-16T08:33:02.596Z,0.97
2018-03-16T08:36:06.281Z,0.80
2018-03-16T08:39:09.657Z,0.60
2018-03-16T08:42:12.989Z,0.70
2018-03-16T08:45:17.188Z,0.70
2018-03-16T08:48:20.489Z,0.50
2018-03-16T08:51:24.554Z,0.60
2018-03-16T08:54:27.975Z,0.33
2018-03-16T08:57:31.313Z,0.40
2018-03-16T09:00:35.411Z,0.20
2018-03-16T09:03:38.743Z,0.30
2018-03-16T09:06:42.073Z,0.17
2018-03-16T09:09:45.434Z,0.20
2018-03-16T09:12:49.634Z,0.10
2018-03-16T09:15:53.849Z,0.10
2018-03-16T09:18:57.264Z,0.30
2018-03-16T09:22:01.370Z,0.20
2018-03-16T09:25:05.483Z,0.20
2018-03-16T09:28:12.596Z,0.20
2018-03-16T09:31:16.763Z,0.20
2018-03-16T09:34:20.083Z,0.20
2018-03-16T09:37:23.460Z,0.33
2018-03-16T09:40:26.779Z,0.10
2018-03-16T09:43:30.096Z,0.20
2018-03-16T09:46:34.239Z,0.33
2018-03-16T09:49:37.559Z,0.20
2018-03-16T09:52:40.868Z,0.10
2018-03-16T09:55:44.194Z,0.17
2018-03-16T09:58:47.515Z,0.37
2018-03-16T10:01:51.607Z,0.10
2018-03-16T10:04:54.953Z,0.10
2018-03-16T10:07:58.555Z,0.20
2018-03-16T10:11:01.905Z,0.30
2018-03-16T10:14:05.372Z,0.10
2018-03-16T10:17:08.673Z,0.10
2018-03-16T10:20:12.190Z,0.23
2018-03-16T10:23:17.014Z,0.10
2018-03-16T10:26:20.339Z,0.10
2018-03-16T10:29:25.032Z,0.20
2018-03-16T10:32:28.367Z,0.20
2018-03-16T10:35:31.755Z,0.20
2018-03-16T10:38:35.083Z,0.13
2018-03-16T10:41:38.415Z,0.20
2018-03-16T10:44:41.775Z,0.27
2018-03-16T10:47:45.086Z,0.10
2018-03-16T10:50:49.175Z,0.20
2018-03-16T10:53:52.558Z,0.20
2018-03-16T10:56:55.923Z,0.10
2018-03-16T10:59:59.380Z,0.10
2018-03-16T11:03:07.678Z,0.10
2018-03-16T11:06:11.031Z,0.33
2018-03-16T11:09:24.072Z,0.20
2018-03-16T11:12:28.223Z,0.27
2018-03-16T11:18:46.221Z,0.30
2018-03-16T11:21:50.424Z,0.30
2018-03-16T11:24:54.524Z,0.30
2018-03-16T11:27:57.841Z,0.50
2018-03-16T11:31:01.276Z,0.37
2018-03-16T11:34:04.621Z,0.40
2018-03-16T11:37:07.936Z,0.40
2018-03-16T11:40:11.240Z,0.50
2018-03-16T11:43:14.651Z,0.90
2018-03-16T11:46:18.083Z,0.50
2018-03-16T11:49:21.440Z,0.50
2018-03-16T11:52:25.560Z,0.50
2018-03-16T11:55:28.876Z,0.33
2018-03-16T11:58:33.145Z,0.50
2018-03-16T12:01:36.468Z,0.30
2018-03-16T12:04:39.797Z,0.50
2018-03-16T12:07:43.132Z,0.40
2018-03-16T12:10:46.538Z,1.00
2018-03-16T12:13:50.148Z,0.70
2018-03-16T12:16:53.508Z,0.80
2018-03-16T12:19:56.825Z,0.70
2018-03-16T12:23:00.453Z,0.47
2018-03-16T12:26:03.775Z,0.70
2018-03-16T12:29:07.453Z,0.97
2018-03-16T12:32:11.367Z,0.70
2018-03-16T12:35:15.638Z,1.07
2018-03-16T12:38:19.709Z,0.90
2018-03-16T12:41:23.024Z,0.73
2018-03-16T12:44:27.852Z,1.00
2018-03-16T12:47:31.151Z,1.10
2018-03-16T12:50:34.660Z,1.00
2018-03-16T12:53:38.025Z,0.87
2018-03-16T12:56:41.457Z,1.10
2018-03-16T12:59:45.632Z,1.20
2018-03-16T13:02:48.938Z,1.20
2018-03-16T13:05:52.473Z,1.00
2018-03-16T13:08:56.331Z,1.03
2018-03-16T13:11:59.662Z,0.90
2018-03-16T13:15:04.206Z,1.03
2018-03-16T13:18:07.512Z,1.00
2018-03-16T13:21:11.612Z,1.03
2018-03-16T13:24:14.953Z,1.27
2018-03-16T13:27:19.123Z,1.83
2018-03-16T13:30:22.888Z,1.40
2018-03-16T13:33:26.308Z,1.20
2018-03-16T13:36:29.883Z,1.50
2018-03-16T13:39:33.988Z,1.27
2018-03-16T13:42:38.075Z,1.30
2018-03-16T13:45:41.387Z,1.00
2018-03-16T13:48:46.172Z,1.42
2018-03-16T13:51:49.516Z,1.30
2018-03-16T13:54:53.319Z,1.00
2018-03-16T13:57:56.931Z,1.17
2018-03-16T14:01:00.360Z,1.13
2018-03-16T14:04:03.792Z,1.50
2018-03-16T14:07:07.105Z,1.10
2018-03-16T14:10:11.445Z,1.30
2018-03-16T14:13:14.823Z,1.20
2018-03-16T14:16:18.145Z,1.00
2018-03-16T14:19:21.516Z,1.20
2018-03-16T14:22:25.966Z,1.30
2018-03-16T14:25:30.500Z,1.23
2018-03-16T14:28:34.131Z,1.27
2018-03-16T14:31:37.496Z,1.20
2018-03-16T14:34:41.637Z,1.13
2018-03-16T14:37:44.951Z,1.03
2018-03-16T14:40:48.257Z,1.20
2018-03-16T14:43:51.587Z,1.10
2018-03-16T14:46:54.950Z,1.07
2018-03-16T14:49:58.306Z,0.90
2018-03-16T14:53:02.376Z,0.83
2018-03-16T14:56:05.695Z,0.70
2018-03-16T14:59:09.006Z,0.67
2018-03-16T15:02:12.380Z,1.00
2018-03-16T15:05:15.754Z,0.45
2018-03-16T15:08:19.574Z,0.77
2018-03-16T15:11:22.909Z,0.50
2018-03-16T15:14:27.011Z,0.40
2018-03-16T15:17:30.321Z,0.53
2018-03-16T15:20:33.924Z,0.50
2018-03-16T15:23:37.992Z,0.20
2018-03-16T15:26:41.414Z,0.17
2018-03-16T15:29:44.728Z,0.20
2018-03-16T15:32:47.963Z,0.20
2018-03-16T15:35:52.022Z,0.10
2018-03-16T15:38:55.289Z,0.20
2018-03-16T15:41:58.704Z,0.20
2018-03-16T15:45:01.986Z,0.30
2018-03-16T15:48:05.473Z,0.67
2018-03-16T15:51:09.597Z,0.60
2018-03-16T15:54:12.930Z,0.60
2018-03-16T15:57:16.245Z,0.70
2018-03-16T16:00:20.866Z,0.90
2018-03-16T16:03:24.165Z,0.80
2018-03-16T16:06:27.696Z,0.80
2018-03-16T16:09:32.042Z,0.80
2018-03-16T16:12:36.067Z,0.60
2018-03-16T16:15:39.453Z,0.63
2018-03-16T16:18:42.737Z,0.77
2018-03-16T16:21:46.812Z,1.03
2018-03-16T16:24:50.167Z,0.80
2018-03-16T16:27:53.437Z,0.80
2018-03-16T16:30:56.698Z,0.73
2018-03-16T16:34:00.061Z,0.97
2018-03-16T16:37:04.124Z,1.00
2018-03-16T16:40:07.372Z,1.10
2018-03-16T16:43:10.645Z,0.87
2018-03-16T16:46:14.682Z,0.97
2018-03-16T16:49:18.694Z,1.00
2018-03-16T16:52:22.754Z,1.10
2018-03-16T16:55:26.020Z,2.87
2018-03-16T16:58:29.293Z,4.50
2018-03-16T17:01:33.341Z,3.90
2018-03-16T17:04:36.622Z,2.72
2018-03-16T17:07:39.885Z,2.30
2018-03-16T17:10:43.175Z,2.33
2018-03-16T17:13:46.441Z,2.20
2018-03-16T17:16:49.952Z,3.20
2018-03-16T17:19:53.215Z,3.47
2018-03-16T17:22:56.474Z,1.63
2018-03-16T17:25:59.814Z,2.47
2018-03-16T17:29:03.068Z,2.80
2018-03-16T17:32:06.331Z,3.40
2018-03-16T17:35:09.597Z,4.57
2018-03-16T17:38:13.378Z,5.47
2018-03-16T17:41:16.709Z,9.97
2018-03-16T17:44:19.998Z,4.50
2018-03-16T17:47:24.126Z,3.10
2018-03-16T17:50:27.383Z,3.40
2018-03-16T17:53:31.578Z,2.97
2018-03-16T17:56:34.866Z,2.53
2018-03-16T17:59:38.126Z,2.00
2018-03-16T18:02:41.560Z,2.30
2018-03-16T18:05:44.897Z,2.40
2018-03-16T18:08:48.173Z,2.20
2018-03-16T18:11:51.478Z,2.33
2018-03-16T18:14:54.825Z,2.40
2018-03-16T18:17:58.125Z,1.60
2018-03-16T18:21:01.588Z,2.07
2018-03-16T18:24:04.861Z,2.03
2018-03-16T18:27:08.185Z,2.20
2018-03-16T18:30:12.382Z,3.70
2018-03-16T18:33:15.949Z,2.60
2018-03-16T18:36:19.328Z,5.43
2018-03-16T18:39:23.447Z,4.20
2018-03-16T18:42:27.938Z,5.07
2018-03-16T18:45:32.212Z,4.33
2018-03-16T18:48:35.578Z,3.40
2018-03-16T18:51:38.925Z,3.17
2018-03-16T18:54:42.204Z,2.27
2018-03-16T18:57:45.486Z,2.30
2018-03-16T19:00:49.533Z,2.58
2018-03-16T19:03:52.882Z,4.00
2018-03-16T19:06:56.956Z,3.90
2018-03-16T19:10:00.207Z,3.20
2018-03-16T19:13:04.320Z,3.33
2018-03-16T19:16:10.061Z,2.13
2018-03-16T19:19:13.406Z,2.10
2018-03-16T19:22:16.689Z,2.20
2018-03-16T19:25:19.982Z,2.00
2018-03-16T19:28:23.233Z,1.87
2018-03-16T19:31:26.512Z,2.00
2018-03-16T19:34:29.774Z,11.97
2018-03-16T19:37:33.977Z,6.63
2018-03-16T19:40:38.047Z,5.50
2018-03-16T19:43:41.322Z,3.27
2018-03-16T19:46:44.637Z,2.43
2018-03-16T19:49:47.922Z,1.63
2018-03-16T19:52:51.386Z,2.67
2018-03-16T19:55:55.464Z,2.03
2018-03-16T19:58:58.775Z,2.50
2018-03-16T20:02:02.067Z,2.13
2018-03-16T20:05:05.362Z,2.40
2018-03-16T20:08:08.742Z,2.20
2018-03-16T20:11:12.164Z,2.00
2018-03-16T20:14:15.461Z,2.93
2018-03-16T20:17:18.810Z,3.37
2018-03-16T20:20:22.942Z,3.00
2018-03-16T20:23:26.253Z,2.83
2018-03-16T20:26:29.734Z,2.63
2018-03-16T20:29:33.839Z,2.33
2018-03-16T20:32:37.899Z,2.27
2018-03-16T20:35:41.169Z,2.57
2018-03-16T20:38:45.713Z,1.90
2018-03-16T20:41:49.025Z,2.10
2018-03-16T20:44:52.294Z,4.10
2018-03-16T20:47:55.598Z,2.43
2018-03-16T20:50:58.857Z,2.53
2018-03-16T20:54:02.124Z,2.00
2018-03-16T20:57:05.392Z,4.83
2018-03-16T21:00:08.681Z,7.82
2018-03-16T21:03:11.985Z,2.37
2018-03-16T21:06:15.329Z,1.17
2018-03-16T21:09:18.563Z,2.20
2018-03-16T21:12:22.680Z,2.33
2018-03-16T21:15:26.699Z,2.57
2018-03-16T21:18:30.713Z,1.90
2018-03-16T21:21:34.965Z,2.10
2018-03-16T21:24:38.248Z,1.60
2018-03-16T21:27:41.737Z,2.00
2018-03-16T21:30:46.162Z,2.00
2018-03-16T21:33:50.187Z,1.90
2018-03-16T21:36:54.330Z,1.93
2018-03-16T21:39:57.593Z,1.60
2018-03-16T21:43:02.894Z,1.30
2018-03-16T21:46:07.474Z,1.10
2018-03-16T21:49:10.871Z,1.53
2018-03-16T21:52:14.245Z,1.70
2018-03-16T21:55:17.573Z,3.10
2018-03-16T21:58:20.843Z,2.70
2018-03-16T22:01:24.922Z,1.83
2018-03-16T22:04:28.196Z,1.40
2018-03-16T22:07:31.475Z,1.53
2018-03-16T22:10:34.741Z,1.60
2018-03-16T22:13:38.007Z,1.17
2018-03-16T22:16:41.253Z,1.33
2018-03-16T22:19:45.305Z,1.23
2018-03-16T22:22:48.577Z,1.67
2018-03-16T22:25:52.697Z,1.37
2018-03-16T22:28:55.966Z,1.20
2018-03-16T22:31:59.217Z,1.40
2018-03-16T22:35:02.483Z,1.83
2018-03-16T22:38:06.505Z,1.90
2018-03-16T22:41:09.767Z,2.08
2018-03-16T22:44:13.061Z,2.10
2018-03-16T22:47:16.392Z,2.00
2018-03-16T22:50:19.672Z,2.08
2018-03-16T22:53:23.700Z,1.60
2018-03-16T22:56:27.780Z,2.73
2018-03-16T22:59:31.054Z,2.30
2018-03-16T23:02:34.297Z,2.10
2018-03-16T23:05:38.532Z,1.97
2018-03-16T23:08:41.817Z,2.00
2018-03-16T23:11:45.837Z,1.73
2018-03-16T23:14:49.866Z,2.43
2018-03-16T23:17:53.202Z,2.27
2018-03-16T23:20:56.463Z,2.50
2018-03-16T23:23:59.728Z,2.20
2018-03-16T23:27:02.977Z,2.53
2018-03-16T23:30:06.233Z,2.30
2018-03-16T23:33:10.258Z,2.30
2018-03-16T23:36:14.276Z,2.40
2018-03-16T23:39:17.554Z,1.60
2018-03-16T23:42:21.619Z,2.80
2018-03-16T23:45:24.894Z,2.00
2018-03-16T23:48:28.159Z,2.20
2018-03-16T23:51:31.419Z,1.93
2018-03-16T23:54:34.776Z,2.15
2018-03-16T23:57:38.892Z,2.10
